Time;durP1;ratioP1;P1;durP2;ratioP2;P2;SDS_P1;SDS_P2;PMS_P1;PMS_P2;Temp;Humidity;BMP_temperature;BMP_pressure;BME280_temperature;BME280_humidity;BME280_pressure;Samples;Min_cycle;Max_cycle;Signal;HPM_P1;HPM_P2
2022/04/05 00:01:13;;;;;;;11.90;10.02;;;;;;;;;;5093882;28;20291;-68
2022/04/05 00:03:41;;;;;;;11.63;9.93;;;;;;;;;;5094242;28;20207;-68
2022/04/05 00:06:08;;;;;;;12.43;9.80;;;;;;;;;;5093810;28;20209;-68
2022/04/05 00:08:36;;;;;;;12.65;10.50;;;;;;;;;;5094145;28;20202;-67
2022/04/05 00:11:03;;;;;;;13.35;10.68;;;;;;;;;;5093775;28;20226;-68
2022/04/05 00:13:32;;;;;;;14.00;10.95;;;;;;;;;;5093852;28;20667;-68
2022/04/05 00:15:59;;;;;;;12.40;10.43;;;;;;;;;;5093433;28;20595;-67
2022/04/05 00:18:26;;;;;;;12.40;10.30;;;;;;;;;;5093780;28;20197;-68
2022/04/05 00:20:53;;;;;;;13.80;10.70;;;;;;;;;;5093324;28;20196;-68
2022/04/05 00:23:20;;;;;;;14.35;11.38;;;;;;;;;;5093660;28;20193;-67
2022/04/05 00:25:48;;;;;;;18.20;11.30;;;;;;;;;;5093283;28;20206;-67
2022/04/05 00:28:15;;;;;;;13.30;10.65;;;;;;;;;;5093674;28;20218;-67
2022/04/05 00:30:43;;;;;;;14.63;10.75;;;;;;;;;;5093531;28;20202;-67
2022/04/05 00:33:11;;;;;;;13.38;10.40;;;;;;;;;;5093549;28;20197;-67
2022/04/05 00:35:38;;;;;;;11.75;9.50;;;;;;;;;;5093385;28;20206;-67
2022/04/05 00:38:06;;;;;;;14.32;10.52;;;;;;;;;;5093604;28;20189;-67
2022/04/05 00:40:33;;;;;;;12.95;9.85;;;;;;;;;;5093513;28;20282;-67
2022/04/05 00:43:03;;;;;;;12.95;9.30;;;;;;;;;;5093714;28;20191;-67
2022/04/05 00:45:31;;;;;;;13.27;9.90;;;;;;;;;;5093588;28;20188;-67
2022/04/05 00:48:00;;;;;;;12.77;9.15;;;;;;;;;;5093426;28;20232;-67
2022/04/05 00:50:27;;;;;;;12.88;8.90;;;;;;;;;;5093446;28;20200;-67
2022/04/05 00:52:55;;;;;;;11.63;8.70;;;;;;;;;;5093484;28;20195;-66
2022/04/05 00:55:23;;;;;;;13.45;9.60;;;;;;;;;;5095152;28;20652;-68
2022/04/05 00:57:51;;;;;;;11.52;7.90;;;;;;;;;;5097145;28;20233;-67
2022/04/05 01:00:18;;;;;;;11.57;8.93;;;;;;;;;;5097237;28;20262;-67
2022/04/05 01:02:48;;;;;;;10.68;7.95;;;;;;;;;;5096830;28;20195;-68
2022/04/05 01:05:18;;;;;;;12.70;8.15;;;;;;;;;;5096849;28;20196;-67
2022/04/05 01:07:47;;;;;;;9.02;6.72;;;;;;;;;;5097381;28;20183;-67
2022/04/05 01:10:14;;;;;;;9.32;6.65;;;;;;;;;;5097193;28;20194;-66
2022/04/05 01:12:42;;;;;;;11.27;7.72;;;;;;;;;;5096993;28;20194;-67
2022/04/05 01:15:11;;;;;;;9.60;7.13;;;;;;;;;;5096971;28;20200;-67
2022/04/05 01:17:39;;;;;;;8.52;5.40;;;;;;;;;;5097002;28;20264;-67
2022/04/05 01:20:06;;;;;;;7.65;5.28;;;;;;;;;;5096587;28;20191;-68
2022/04/05 01:22:35;;;;;;;6.57;5.30;;;;;;;;;;5097221;28;20217;-68
2022/04/05 01:25:04;;;;;;;10.23;5.00;;;;;;;;;;5096495;28;20292;-68
2022/04/05 01:27:31;;;;;;;8.93;5.82;;;;;;;;;;5096633;28;20194;-67
2022/04/05 01:29:58;;;;;;;7.30;5.32;;;;;;;;;;5096672;28;20200;-68
2022/04/05 01:32:25;;;;;;;7.15;4.65;;;;;;;;;;5096537;28;20195;-67
2022/04/05 01:34:52;;;;;;;5.53;4.22;;;;;;;;;;5096266;28;20200;-67
2022/04/05 01:37:19;;;;;;;6.10;5.20;;;;;;;;;;5096351;28;20723;-67
2022/04/05 01:39:47;;;;;;;5.80;4.82;;;;;;;;;;5096324;28;20198;-67
2022/04/05 01:42:16;;;;;;;6.68;4.55;;;;;;;;;;5096074;28;20200;-68
2022/04/05 01:44:44;;;;;;;9.95;4.40;;;;;;;;;;5096073;28;20203;-67
2022/04/05 01:47:12;;;;;;;4.97;4.15;;;;;;;;;;5095922;28;20233;-67
2022/04/05 01:49:40;;;;;;;4.93;4.30;;;;;;;;;;5096394;28;20191;-67
2022/04/05 01:52:09;;;;;;;4.90;4.28;;;;;;;;;;5096223;28;20199;-67
2022/04/05 01:54:36;;;;;;;5.28;3.90;;;;;;;;;;5096296;28;20592;-67
2022/04/05 01:57:04;;;;;;;4.90;4.40;;;;;;;;;;5096226;28;20310;-67
2022/04/05 01:59:34;;;;;;;4.80;4.00;;;;;;;;;;5096102;28;20292;-68
2022/04/05 02:02:04;;;;;;;7.72;4.15;;;;;;;;;;5096360;28;20202;-68
2022/04/05 02:04:31;;;;;;;4.95;4.45;;;;;;;;;;5096202;28;20545;-65
2022/04/05 02:06:59;;;;;;;6.13;4.28;;;;;;;;;;5094570;28;20671;-67
2022/04/05 02:09:26;;;;;;;6.40;3.88;;;;;;;;;;5096004;28;20191;-66
2022/04/05 02:11:54;;;;;;;7.72;4.53;;;;;;;;;;5095822;28;20199;-66
2022/04/05 02:14:21;;;;;;;6.65;4.47;;;;;;;;;;5096525;28;20192;-66
2022/04/05 02:16:50;;;;;;;5.10;4.28;;;;;;;;;;5095871;28;20225;-67
2022/04/05 02:19:17;;;;;;;4.75;4.22;;;;;;;;;;5095437;28;20290;-66
2022/04/05 02:21:44;;;;;;;4.80;4.07;;;;;;;;;;5095797;28;20607;-66
2022/04/05 02:24:11;;;;;;;3.80;3.47;;;;;;;;;;5095957;28;20208;-66
2022/04/05 02:26:39;;;;;;;4.65;3.83;;;;;;;;;;5095562;28;20196;-68
2022/04/05 02:29:07;;;;;;;4.80;3.42;;;;;;;;;;5095224;28;20197;-66
2022/04/05 02:31:34;;;;;;;3.53;3.22;;;;;;;;;;5095561;28;20615;-67
2022/04/05 02:34:02;;;;;;;4.75;3.63;;;;;;;;;;5095180;28;20652;-68
2022/04/05 02:36:30;;;;;;;3.92;3.53;;;;;;;;;;5095359;28;20211;-67
2022/04/05 02:38:57;;;;;;;4.38;3.97;;;;;;;;;;5095092;28;20198;-70
2022/04/05 02:41:24;;;;;;;4.50;3.85;;;;;;;;;;5095322;28;20191;-68
2022/04/05 02:43:51;;;;;;;4.05;3.65;;;;;;;;;;5095223;28;20196;-68
2022/04/05 02:46:18;;;;;;;3.97;3.40;;;;;;;;;;5094980;28;20225;-68
2022/04/05 02:48:46;;;;;;;5.65;3.60;;;;;;;;;;5094817;28;20197;-69
2022/04/05 02:51:15;;;;;;;4.65;3.53;;;;;;;;;;5095571;28;20203;-68
2022/04/05 02:53:43;;;;;;;3.90;3.15;;;;;;;;;;5095094;28;20287;-68
2022/04/05 02:56:11;;;;;;;4.57;4.00;;;;;;;;;;5095092;28;20198;-67
2022/04/05 02:58:38;;;;;;;3.65;3.35;;;;;;;;;;5094871;28;20228;-68
2022/04/05 03:01:06;;;;;;;3.47;3.17;;;;;;;;;;5095022;28;20278;-67
2022/04/05 03:03:33;;;;;;;4.05;3.65;;;;;;;;;;5095034;28;20613;-68
2022/04/05 03:06:00;;;;;;;7.40;3.63;;;;;;;;;;5094918;28;20558;-67
2022/04/05 03:08:29;;;;;;;4.15;3.30;;;;;;;;;;5094792;28;20196;-67
2022/04/05 03:10:56;;;;;;;3.30;3.10;;;;;;;;;;5094797;28;20193;-67
2022/04/05 03:13:23;;;;;;;4.53;3.42;;;;;;;;;;5094892;28;20199;-67
2022/04/05 03:15:50;;;;;;;4.60;4.20;;;;;;;;;;5094603;28;20201;-67
2022/04/05 03:18:18;;;;;;;4.10;3.80;;;;;;;;;;5094254;28;20222;-68
2022/04/05 03:20:45;;;;;;;4.53;4.15;;;;;;;;;;5094351;28;20671;-68
2022/04/05 03:23:12;;;;;;;4.15;3.85;;;;;;;;;;5094592;28;20199;-68
2022/04/05 03:25:41;;;;;;;3.97;3.67;;;;;;;;;;5094526;28;20208;-68
2022/04/05 03:28:08;;;;;;;5.53;5.03;;;;;;;;;;5094489;28;20302;-67
2022/04/05 03:30:35;;;;;;;4.80;4.40;;;;;;;;;;5094684;28;20195;-67
2022/04/05 03:33:02;;;;;;;6.05;5.43;;;;;;;;;;5094358;28;20195;-67
2022/04/05 03:35:29;;;;;;;9.00;5.90;;;;;;;;;;5094374;28;20560;-67
2022/04/05 03:37:57;;;;;;;5.50;5.03;;;;;;;;;;5093905;28;20223;-67
2022/04/05 03:40:26;;;;;;;5.28;4.78;;;;;;;;;;5094762;28;20539;-68
2022/04/05 03:42:55;;;;;;;4.60;4.20;;;;;;;;;;5093892;28;20217;-67
2022/04/05 03:45:23;;;;;;;4.88;4.47;;;;;;;;;;5094343;28;20200;-68
2022/04/05 03:47:50;;;;;;;4.80;4.35;;;;;;;;;;5094828;28;20242;-67
2022/04/05 03:50:18;;;;;;;5.50;4.97;;;;;;;;;;5093864;28;20203;-68
2022/04/05 03:52:45;;;;;;;3.83;3.53;;;;;;;;;;5093859;28;20195;-67
2022/04/05 03:55:12;;;;;;;3.90;3.60;;;;;;;;;;5094000;28;20199;-67
2022/04/05 03:57:39;;;;;;;7.30;3.80;;;;;;;;;;5093994;28;20615;-67
2022/04/05 04:00:09;;;;;;;4.68;3.58;;;;;;;;;;5093644;28;20202;-67
2022/04/05 04:02:36;;;;;;;3.50;3.20;;;;;;;;;;5094222;28;20196;-68
2022/04/05 04:05:04;;;;;;;4.25;3.85;;;;;;;;;;5093493;28;20290;-67
2022/04/05 04:07:31;;;;;;;6.15;4.70;;;;;;;;;;5093564;28;20248;-67
2022/04/05 04:10:02;;;;;;;4.40;3.88;;;;;;;;;;5093813;28;20194;-68
2022/04/05 04:12:29;;;;;;;4.00;3.70;;;;;;;;;;5093606;28;20179;-68
2022/04/05 04:14:56;;;;;;;5.55;3.60;;;;;;;;;;5093431;28;20211;-69
2022/04/05 04:17:25;;;;;;;4.00;3.65;;;;;;;;;;5093832;28;20668;-69
2022/04/05 04:19:52;;;;;;;3.85;3.55;;;;;;;;;;5093348;28;20193;-69
2022/04/05 04:22:20;;;;;;;4.60;4.03;;;;;;;;;;5094574;28;20195;-68
2022/04/05 04:24:48;;;;;;;4.93;3.40;;;;;;;;;;5092262;28;20196;-69
2022/04/05 04:27:15;;;;;;;4.40;4.00;;;;;;;;;;5093597;28;20238;-69
2022/04/05 04:29:42;;;;;;;7.45;4.18;;;;;;;;;;5093690;28;20257;-68
2022/04/05 04:32:09;;;;;;;5.10;4.30;;;;;;;;;;5097580;28;20284;-68
2022/04/05 04:34:38;;;;;;;4.00;3.70;;;;;;;;;;5097415;28;20695;-69
2022/04/05 04:37:06;;;;;;;5.07;4.03;;;;;;;;;;5097445;28;20229;-69
2022/04/05 04:39:34;;;;;;;4.25;3.95;;;;;;;;;;5097417;28;20200;-69
2022/04/05 04:42:01;;;;;;;16.73;4.72;;;;;;;;;;5096981;28;20227;-69
2022/04/05 04:44:29;;;;;;;4.47;4.03;;;;;;;;;;5097448;28;20196;-69
2022/04/05 04:46:56;;;;;;;4.40;4.00;;;;;;;;;;5096675;28;20262;-68
2022/04/05 04:49:23;;;;;;;7.25;5.28;;;;;;;;;;5097239;28;20191;-69
2022/04/05 04:51:51;;;;;;;4.40;3.97;;;;;;;;;;5097205;28;20199;-68
2022/04/05 04:54:19;;;;;;;5.97;4.60;;;;;;;;;;5096872;28;20665;-69
2022/04/05 04:56:46;;;;;;;4.50;4.10;;;;;;;;;;5096775;28;20203;-69
2022/04/05 04:59:13;;;;;;;5.45;4.80;;;;;;;;;;5097193;28;20258;-69
2022/04/05 05:01:40;;;;;;;6.10;4.82;;;;;;;;;;5097251;28;20232;-69
2022/04/05 05:04:08;;;;;;;7.70;4.97;;;;;;;;;;5096835;28;20290;-68
2022/04/05 05:06:35;;;;;;;5.00;4.50;;;;;;;;;;5097334;28;20285;-68
2022/04/05 05:09:04;;;;;;;4.38;4.03;;;;;;;;;;5096796;28;20205;-69
2022/04/05 05:11:31;;;;;;;4.72;4.22;;;;;;;;;;5096895;28;20705;-68
2022/04/05 05:13:58;;;;;;;5.00;4.43;;;;;;;;;;5097012;28;20192;-69
2022/04/05 05:16:25;;;;;;;5.97;5.35;;;;;;;;;;5097035;28;20296;-69
2022/04/05 05:18:53;;;;;;;4.75;4.30;;;;;;;;;;5097090;28;20225;-70
2022/04/05 05:21:20;;;;;;;4.80;4.40;;;;;;;;;;5096919;28;20223;-69
2022/04/05 05:23:47;;;;;;;4.70;4.30;;;;;;;;;;5096713;28;20192;-70
2022/04/05 05:26:16;;;;;;;6.10;5.55;;;;;;;;;;5096572;28;20200;-69
2022/04/05 05:28:43;;;;;;;5.68;5.10;;;;;;;;;;5096939;28;20253;-67
2022/04/05 05:31:10;;;;;;;7.43;4.93;;;;;;;;;;5096669;28;20673;-67
2022/04/05 05:33:37;;;;;;;7.80;4.80;;;;;;;;;;5096708;28;20525;-67
2022/04/05 05:36:04;;;;;;;4.53;4.10;;;;;;;;;;5096795;28;20563;-67
2022/04/05 05:38:33;;;;;;;6.55;5.82;;;;;;;;;;5097017;28;20226;-66
2022/04/05 05:41:00;;;;;;;6.15;5.13;;;;;;;;;;5096622;28;20310;-66
2022/04/05 05:43:29;;;;;;;6.97;5.10;;;;;;;;;;5096869;28;20193;-66
2022/04/05 05:45:56;;;;;;;5.00;4.60;;;;;;;;;;5096435;28;20224;-66
2022/04/05 05:48:23;;;;;;;6.20;5.03;;;;;;;;;;5096108;28;20274;-66
2022/04/05 05:50:51;;;;;;;5.38;4.70;;;;;;;;;;5095910;28;20293;-66
2022/04/05 05:53:19;;;;;;;6.18;4.68;;;;;;;;;;5096431;28;20676;-66
2022/04/05 05:55:48;;;;;;;5.80;4.72;;;;;;;;;;5095829;28;20202;-66
2022/04/05 05:58:15;;;;;;;6.30;5.35;;;;;;;;;;5096833;28;20289;-67
2022/04/05 06:00:44;;;;;;;5.88;5.28;;;;;;;;;;5096019;28;20291;-66
2022/04/05 06:03:12;;;;;;;7.47;5.35;;;;;;;;;;5096173;28;20227;-66
2022/04/05 06:05:39;;;;;;;10.88;7.00;;;;;;;;;;5095719;28;20206;-67
2022/04/05 06:08:07;;;;;;;6.43;5.82;;;;;;;;;;5095999;28;20200;-67
2022/04/05 06:10:34;;;;;;;7.25;6.05;;;;;;;;;;5095959;28;20234;-67
2022/04/05 06:13:01;;;;;;;7.25;6.55;;;;;;;;;;5096067;28;20203;-67
2022/04/05 06:15:29;;;;;;;6.65;5.80;;;;;;;;;;5095550;28;20193;-67
2022/04/05 06:17:59;;;;;;;9.25;6.90;;;;;;;;;;5095840;28;20227;-67
2022/04/05 06:20:26;;;;;;;11.55;6.47;;;;;;;;;;5095638;28;20219;-67
2022/04/05 06:22:54;;;;;;;6.35;5.75;;;;;;;;;;5095362;28;20202;-66
2022/04/05 06:25:23;;;;;;;10.57;7.05;;;;;;;;;;5095951;28;20288;-66
2022/04/05 06:27:50;;;;;;;10.50;8.82;;;;;;;;;;5096317;28;20196;-66
2022/04/05 06:30:18;;;;;;;7.40;6.70;;;;;;;;;;5095812;28;20195;-66
2022/04/05 06:32:46;;;;;;;7.72;6.93;;;;;;;;;;5095512;28;20672;-66
2022/04/05 06:35:15;;;;;;;11.10;6.70;;;;;;;;;;5095680;28;20200;-67
2022/04/05 06:37:44;;;;;;;7.38;6.68;;;;;;;;;;5095622;28;20207;-66
2022/04/05 06:40:12;;;;;;;8.85;6.40;;;;;;;;;;5095330;28;20204;-66
2022/04/05 06:42:43;;;;;;;13.80;9.95;;;;;;;;;;5095101;28;20653;-66
2022/04/05 06:45:11;;;;;;;9.93;8.07;;;;;;;;;;5095712;28;20211;-66
2022/04/05 06:47:38;;;;;;;7.43;6.63;;;;;;;;;;5095768;28;20228;-67
2022/04/05 06:50:07;;;;;;;8.48;7.47;;;;;;;;;;5095317;28;20192;-66
2022/04/05 06:52:36;;;;;;;10.63;7.38;;;;;;;;;;5094746;28;20194;-67
2022/04/05 06:55:03;;;;;;;8.57;7.47;;;;;;;;;;5095023;28;20288;-66
2022/04/05 06:57:30;;;;;;;9.30;8.20;;;;;;;;;;5094943;28;20223;-66
2022/04/05 06:59:58;;;;;;;10.13;8.88;;;;;;;;;;5095002;28;20230;-67
2022/04/05 07:02:25;;;;;;;8.30;7.50;;;;;;;;;;5094556;28;20197;-67
2022/04/05 07:04:52;;;;;;;10.85;6.97;;;;;;;;;;5094712;28;20563;-67
2022/04/05 07:07:19;;;;;;;8.82;7.88;;;;;;;;;;5094458;28;20239;-67
2022/04/05 07:09:48;;;;;;;7.80;6.95;;;;;;;;;;5095145;28;20590;-67
2022/04/05 07:12:15;;;;;;;8.35;7.55;;;;;;;;;;5094624;28;20206;-67
2022/04/05 07:14:42;;;;;;;8.85;6.70;;;;;;;;;;5094422;28;20201;-66
2022/04/05 07:17:10;;;;;;;8.27;6.95;;;;;;;;;;5094185;28;20659;-67
2022/04/05 07:19:37;;;;;;;7.32;6.63;;;;;;;;;;5094335;28;20212;-67
2022/04/05 07:22:04;;;;;;;10.07;7.80;;;;;;;;;;5094211;28;20204;-67
2022/04/05 07:24:32;;;;;;;13.50;9.30;;;;;;;;;;5094465;28;20625;-66
2022/04/05 07:27:00;;;;;;;9.65;7.13;;;;;;;;;;5094392;28;20200;-67
2022/04/05 07:29:28;;;;;;;7.88;6.57;;;;;;;;;;5094006;28;20198;-67
2022/04/05 07:31:55;;;;;;;11.38;7.10;;;;;;;;;;5094303;28;20200;-67
2022/04/05 07:34:22;;;;;;;7.40;6.50;;;;;;;;;;5094725;28;20201;-67
2022/04/05 07:36:49;;;;;;;8.20;6.65;;;;;;;;;;5093990;28;20672;-67
2022/04/05 07:39:19;;;;;;;11.07;6.97;;;;;;;;;;5094300;28;20353;-66
2022/04/05 07:41:46;;;;;;;15.77;8.10;;;;;;;;;;5094253;28;20197;-66
2022/04/05 07:44:15;;;;;;;10.70;9.30;;;;;;;;;;5093887;28;20317;-66
2022/04/05 07:46:42;;;;;;;9.63;6.70;;;;;;;;;;5094140;28;20317;-67
2022/04/05 07:49:09;;;;;;;6.85;6.13;;;;;;;;;;5093748;28;20204;-67
2022/04/05 07:51:36;;;;;;;7.93;7.20;;;;;;;;;;5094068;28;20206;-67
2022/04/05 07:54:05;;;;;;;7.43;6.57;;;;;;;;;;5094316;28;20546;-67
2022/04/05 07:56:33;;;;;;;9.13;6.55;;;;;;;;;;5093588;28;20284;-67
2022/04/05 07:59:01;;;;;;;7.32;6.50;;;;;;;;;;5093574;28;20216;-67
2022/04/05 08:01:30;;;;;;;9.70;7.32;;;;;;;;;;5093396;28;20234;-67
2022/04/05 08:03:57;;;;;;;8.90;7.30;;;;;;;;;;5092864;28;20200;-66
2022/04/05 08:06:25;;;;;;;7.80;5.97;;;;;;;;;;5093598;28;20221;-67
2022/04/05 08:08:52;;;;;;;6.35;5.75;;;;;;;;;;5094104;28;20207;-66
2022/04/05 08:11:19;;;;;;;6.35;5.18;;;;;;;;;;5093642;28;20661;-66
2022/04/05 08:13:46;;;;;;;6.32;5.60;;;;;;;;;;5093794;28;20211;-67
2022/04/05 08:16:14;;;;;;;5.70;5.00;;;;;;;;;;5093200;28;20277;-66
2022/04/05 08:18:42;;;;;;;4.35;3.95;;;;;;;;;;5093551;28;20306;-66
2022/04/05 08:21:10;;;;;;;6.00;5.13;;;;;;;;;;5093345;28;20288;-66
2022/04/05 08:23:38;;;;;;;6.20;5.45;;;;;;;;;;5093150;28;20241;-67
2022/04/05 08:26:05;;;;;;;6.45;4.53;;;;;;;;;;5093197;28;20676;-67
2022/04/05 08:28:33;;;;;;;7.70;5.07;;;;;;;;;;5093433;28;20193;-67
2022/04/05 08:31:00;;;;;;;6.40;5.25;;;;;;;;;;5093363;28;20283;-67
2022/04/05 08:33:28;;;;;;;6.00;5.40;;;;;;;;;;5093508;28;20283;-67
2022/04/05 08:35:57;;;;;;;5.85;5.05;;;;;;;;;;5093184;28;20247;-67
2022/04/05 08:38:25;;;;;;;7.15;5.65;;;;;;;;;;5093219;28;20204;-67
2022/04/05 08:40:52;;;;;;;6.13;5.43;;;;;;;;;;5094217;28;20224;-67
2022/04/05 08:43:20;;;;;;;5.70;5.10;;;;;;;;;;5093358;28;20240;-67
2022/04/05 08:45:51;;;;;;;6.10;5.50;;;;;;;;;;5093187;28;20324;-67
2022/04/05 08:48:19;;;;;;;7.22;5.65;;;;;;;;;;5093136;28;20631;-67
2022/04/05 08:50:46;;;;;;;9.13;4.93;;;;;;;;;;5092907;28;20203;-67
2022/04/05 08:53:15;;;;;;;5.80;5.28;;;;;;;;;;5093619;28;20204;-67
2022/04/05 08:55:42;;;;;;;4.50;4.05;;;;;;;;;;5093231;28;20192;-67
2022/04/05 08:58:09;;;;;;;5.82;5.22;;;;;;;;;;5093273;28;20193;-67
2022/04/05 09:00:36;;;;;;;5.22;4.28;;;;;;;;;;5092911;28;20233;-67
2022/04/05 09:03:05;;;;;;;4.78;4.10;;;;;;;;;;5092964;28;20190;-67
2022/04/05 09:05:34;;;;;;;7.30;4.90;;;;;;;;;;5092834;28;20658;-67
2022/04/05 09:08:17;;;;;;;4.97;4.47;;;;;;;;;;5092875;28;20193;-67
2022/04/05 09:10:44;;;;;;;4.50;4.10;;;;;;;;;;5092769;28;20204;-67
2022/04/05 09:13:12;;;;;;;3.70;3.25;;;;;;;;;;5093052;28;20564;-67
2022/04/05 09:15:41;;;;;;;6.30;4.30;;;;;;;;;;5093846;28;20200;-66
2022/04/05 09:18:08;;;;;;;4.05;3.60;;;;;;;;;;5096944;28;20200;-66
2022/04/05 09:20:45;;;;;;;3.83;3.53;;;;;;;;;;5097403;28;20312;-66
2022/04/05 09:23:24;;;;;;;4.85;3.72;;;;;;;;;;5097142;28;20193;-67
2022/04/05 09:25:55;;;;;;;3.85;3.55;;;;;;;;;;5097007;28;20570;-67
2022/04/05 09:28:27;;;;;;;5.18;4.63;;;;;;;;;;5096788;28;20193;-67
2022/04/05 09:30:57;;;;;;;4.65;4.25;;;;;;;;;;5096884;28;20211;-67
2022/04/05 09:33:24;;;;;;;4.55;4.15;;;;;;;;;;5096757;28;20216;-67
2022/04/05 09:35:55;;;;;;;4.65;4.25;;;;;;;;;;5096519;28;20190;-67
2022/04/05 09:38:22;;;;;;;6.25;5.57;;;;;;;;;;5096472;28;20657;-67
2022/04/05 09:40:52;;;;;;;6.20;5.18;;;;;;;;;;5096557;28;20319;-67
2022/04/05 09:43:21;;;;;;;5.90;5.25;;;;;;;;;;5096124;28;20194;-66
2022/04/05 09:45:51;;;;;;;6.20;5.28;;;;;;;;;;5095960;28;20699;-66
2022/04/05 09:48:19;;;;;;;6.78;5.80;;;;;;;;;;5096048;28;20181;-67
2022/04/05 09:50:59;;;;;;;5.85;5.18;;;;;;;;;;5096359;28;20200;-66
2022/04/05 09:53:27;;;;;;;5.95;5.45;;;;;;;;;;5096078;28;20193;-67
2022/04/05 09:56:06;;;;;;;5.13;4.60;;;;;;;;;;5096342;28;20205;-67
2022/04/05 09:58:33;;;;;;;4.75;4.28;;;;;;;;;;5096034;28;20193;-67
2022/04/05 10:01:08;;;;;;;5.85;5.28;;;;;;;;;;5095795;28;20227;-67
2022/04/05 10:03:35;;;;;;;5.47;4.75;;;;;;;;;;5096074;28;20283;-67
2022/04/05 10:06:03;;;;;;;5.47;5.00;;;;;;;;;;5096143;28;20612;-67
2022/04/05 10:08:32;;;;;;;4.88;4.38;;;;;;;;;;5095634;28;20202;-66
2022/04/05 10:11:00;;;;;;;4.78;4.38;;;;;;;;;;5096213;28;20209;-66
2022/04/05 10:13:29;;;;;;;5.63;4.78;;;;;;;;;;5095803;28;20627;-66
2022/04/05 10:15:57;;;;;;;5.78;5.18;;;;;;;;;;5095606;28;20193;-66
2022/04/05 10:18:25;;;;;;;7.25;6.13;;;;;;;;;;5095471;28;20198;-67
2022/04/05 10:20:53;;;;;;;6.32;5.03;;;;;;;;;;5095454;28;20216;-67
2022/04/05 10:23:22;;;;;;;6.05;5.45;;;;;;;;;;5095649;28;20227;-67
2022/04/05 10:25:51;;;;;;;8.05;6.35;;;;;;;;;;5095303;28;20196;-66
2022/04/05 10:28:20;;;;;;;5.63;5.00;;;;;;;;;;5094290;28;20193;-67
2022/04/05 10:30:53;;;;;;;7.30;6.53;;;;;;;;;;5095349;28;20215;-67
2022/04/05 10:33:24;;;;;;;7.50;6.80;;;;;;;;;;5094925;28;20188;-67
2022/04/05 10:35:54;;;;;;;9.97;7.03;;;;;;;;;;5095166;28;20432;-67
2022/04/05 10:38:21;;;;;;;8.43;7.28;;;;;;;;;;5094767;28;20525;-67
2022/04/05 10:41:03;;;;;;;11.47;8.13;;;;;;;;;;5095300;28;20574;-67
2022/04/05 10:43:31;;;;;;;12.00;7.30;;;;;;;;;;5095128;28;20540;-67
2022/04/05 10:45:59;;;;;;;10.87;9.40;;;;;;;;;;5094483;28;20485;-66
2022/04/05 10:48:28;;;;;;;8.63;7.60;;;;;;;;;;5094985;28;20455;-67
2022/04/05 10:51:30;;;;;;;10.02;8.05;;;;;;;;;;5095398;28;20451;-67
2022/04/05 10:54:19;;;;;;;10.83;8.30;;;;;;;;;;5095171;28;20272;-67
2022/04/05 10:57:01;;;;;;;11.50;8.23;;;;;;;;;;5095578;28;20428;-67
2022/04/05 10:59:28;;;;;;;9.07;8.03;;;;;;;;;;5094449;28;20485;-68
2022/04/05 11:01:57;;;;;;;9.90;8.48;;;;;;;;;;5095103;28;20440;-68
2022/04/05 11:04:30;;;;;;;12.20;8.50;;;;;;;;;;5094561;28;20658;-68
2022/04/05 11:07:10;;;;;;;9.20;8.30;;;;;;;;;;5095319;28;20436;-68
2022/04/05 11:09:42;;;;;;;8.33;7.13;;;;;;;;;;5095174;28;20428;-69
2022/04/05 11:12:12;;;;;;;8.17;7.20;;;;;;;;;;5094583;28;20431;-69
2022/04/05 11:14:40;;;;;;;7.80;6.53;;;;;;;;;;5094223;28;21004;-69
2022/04/05 11:17:09;;;;;;;6.00;5.20;;;;;;;;;;5094286;28;20534;-74
2022/04/05 11:19:37;;;;;;;7.47;6.77;;;;;;;;;;5094923;28;20479;-72
2022/04/05 11:22:05;;;;;;;7.93;7.13;;;;;;;;;;5094423;28;20436;-72
2022/04/05 11:24:50;;;;;;;7.63;6.30;;;;;;;;;;5094661;28;20436;-72
2022/04/05 11:27:28;;;;;;;7.97;6.90;;;;;;;;;;5094158;28;20440;-72
2022/04/05 11:30:10;;;;;;;9.73;5.80;;;;;;;;;;5093919;28;20449;-72
2022/04/05 11:32:38;;;;;;;7.63;6.20;;;;;;;;;;5093346;28;20442;-72
2022/04/05 11:35:06;;;;;;;7.17;6.50;;;;;;;;;;5093098;28;20530;-72
2022/04/05 11:37:36;;;;;;;6.47;5.83;;;;;;;;;;5094198;28;20444;-72
2022/04/05 11:40:04;;;;;;;6.80;5.70;;;;;;;;;;5093461;28;20477;-71
2022/04/05 11:42:35;;;;;;;7.90;6.80;;;;;;;;;;5093878;28;20466;-71
2022/04/05 11:45:03;;;;;;;6.47;5.20;;;;;;;;;;5093568;28;20432;-72
2022/04/05 11:47:30;;;;;;;6.63;6.00;;;;;;;;;;5093407;28;20497;-73
2022/04/05 11:49:59;;;;;;;6.40;5.77;;;;;;;;;;5093556;28;20454;-72
2022/04/05 11:52:29;;;;;;;5.57;4.97;;;;;;;;;;5093921;28;20443;-72
2022/04/05 11:57:44;;;;;;;8.50;6.03;;;;;;;;;;5067469;28;20424;-73
2022/04/05 12:00:12;;;;;;;5.77;5.27;;;;;;;;;;5092624;28;20471;-72
2022/04/05 12:02:39;;;;;;;5.93;5.43;;;;;;;;;;5093625;28;20527;-73
2022/04/05 12:05:09;;;;;;;6.27;5.67;;;;;;;;;;5093559;28;20438;-71
2022/04/05 12:07:36;;;;;;;5.57;5.03;;;;;;;;;;5093260;28;20535;-71
2022/04/05 12:10:04;;;;;;;7.70;6.97;;;;;;;;;;5093784;28;20444;-72
2022/04/05 12:12:32;;;;;;;5.83;4.70;;;;;;;;;;5093721;28;20873;-71
2022/04/05 12:14:59;;;;;;;7.50;6.00;;;;;;;;;;5094410;28;20452;-72
2022/04/05 12:17:26;;;;;;;6.67;5.60;;;;;;;;;;5094191;28;20845;-70
2022/04/05 12:19:54;;;;;;;6.10;5.50;;;;;;;;;;5093262;28;20497;-68
2022/04/05 12:22:23;;;;;;;10.30;6.80;;;;;;;;;;5093411;28;20444;-67
2022/04/05 12:24:53;;;;;;;7.57;6.87;;;;;;;;;;5093504;28;20917;-67
2022/04/05 12:27:21;;;;;;;6.97;6.27;;;;;;;;;;5093345;28;20423;-67
2022/04/05 12:29:48;;;;;;;8.90;6.97;;;;;;;;;;5093181;28;20534;-69
2022/04/05 12:32:16;;;;;;;7.20;6.50;;;;;;;;;;5094030;28;20459;-67
2022/04/05 12:34:44;;;;;;;9.77;6.10;;;;;;;;;;5093023;28;20443;-68
2022/04/05 12:37:14;;;;;;;7.80;5.70;;;;;;;;;;5093196;28;20451;-68
2022/04/05 12:39:45;;;;;;;7.80;6.73;;;;;;;;;;5093293;28;20435;-69
2022/04/05 12:42:12;;;;;;;7.30;6.50;;;;;;;;;;5093456;28;20420;-69
2022/04/05 12:44:40;;;;;;;7.53;6.47;;;;;;;;;;5093260;28;20922;-68
2022/04/05 12:47:09;;;;;;;6.95;6.15;;;;;;;;;;5093286;28;20474;-69
2022/04/05 12:49:38;;;;;;;5.47;4.97;;;;;;;;;;5093407;28;20212;-69
2022/04/05 12:52:09;;;;;;;5.50;5.00;;;;;;;;;;5095964;28;20434;-69
2022/04/05 12:54:38;;;;;;;5.20;4.70;;;;;;;;;;5097052;28;20436;-69
2022/04/05 12:57:20;;;;;;;7.87;4.23;;;;;;;;;;5097073;28;20472;-68
2022/04/05 12:59:48;;;;;;;6.80;4.80;;;;;;;;;;5097385;28;20444;-69
2022/04/05 13:02:16;;;;;;;4.63;4.23;;;;;;;;;;5097276;28;20432;-69
2022/04/05 13:04:44;;;;;;;4.83;4.37;;;;;;;;;;5096697;28;20932;-69
2022/04/05 13:07:11;;;;;;;4.63;4.07;;;;;;;;;;5097184;28;20866;-69
2022/04/05 13:09:38;;;;;;;3.47;3.17;;;;;;;;;;5097668;28;20442;-70
2022/04/05 13:12:13;;;;;;;5.20;4.40;;;;;;;;;;5097275;28;20439;-70
2022/04/05 13:14:42;;;;;;;4.07;3.73;;;;;;;;;;5096784;28;20454;-70
2022/04/05 13:17:11;;;;;;;4.47;4.07;;;;;;;;;;5097077;28;20462;-71
2022/04/05 13:19:38;;;;;;;4.60;3.47;;;;;;;;;;5097153;28;20439;-71
2022/04/05 13:22:13;;;;;;;4.77;4.37;;;;;;;;;;5096663;28;20566;-71
2022/04/05 13:24:41;;;;;;;5.50;3.63;;;;;;;;;;5096384;28;20427;-73
2022/04/05 13:27:08;;;;;;;5.07;4.57;;;;;;;;;;5096503;28;20444;-72
2022/04/05 13:29:36;;;;;;;4.70;4.30;;;;;;;;;;5096758;28;20439;-72
2022/04/05 13:32:06;;;;;;;3.93;3.53;;;;;;;;;;5096302;28;20478;-73
2022/04/05 13:34:35;;;;;;;4.33;4.00;;;;;;;;;;5096524;28;20420;-72
2022/04/05 13:37:03;;;;;;;4.03;3.73;;;;;;;;;;5096340;28;20448;-73
2022/04/05 13:39:33;;;;;;;4.10;3.80;;;;;;;;;;5096303;28;20443;-73
2022/04/05 13:42:01;;;;;;;4.00;3.70;;;;;;;;;;5096054;28;20479;-73
2022/04/05 13:44:28;;;;;;;5.20;3.90;;;;;;;;;;5096170;28;20436;-72
2022/04/05 13:46:56;;;;;;;4.47;3.37;;;;;;;;;;5095994;28;20467;-72
2022/04/05 13:49:24;;;;;;;4.20;3.90;;;;;;;;;;5096570;28;20520;-72
2022/04/05 13:51:54;;;;;;;5.27;4.30;;;;;;;;;;5096893;28;20457;-73
2022/04/05 13:54:21;;;;;;;3.90;3.50;;;;;;;;;;5096316;28;20508;-73
2022/04/05 13:56:48;;;;;;;3.73;3.53;;;;;;;;;;5095866;28;20488;-72
2022/04/05 13:59:15;;;;;;;4.70;4.30;;;;;;;;;;5095941;28;20444;-72
2022/04/05 14:01:43;;;;;;;4.67;4.20;;;;;;;;;;5094895;28;20566;-72
2022/04/05 14:04:10;;;;;;;5.93;3.87;;;;;;;;;;5094791;28;20440;-72
2022/04/05 14:06:39;;;;;;;4.40;3.97;;;;;;;;;;5096158;28;20435;-72
2022/04/05 14:09:06;;;;;;;4.97;4.50;;;;;;;;;;5095955;28;20467;-72
2022/04/05 14:11:34;;;;;;;4.37;4.00;;;;;;;;;;5095618;28;20444;-72
2022/04/05 14:14:08;;;;;;;5.13;4.70;;;;;;;;;;5096129;28;20444;-72
2022/04/05 14:16:35;;;;;;;5.73;5.20;;;;;;;;;;5096126;28;20463;-72
2022/04/05 14:19:02;;;;;;;5.50;4.97;;;;;;;;;;5095971;28;20887;-72
2022/04/05 14:21:29;;;;;;;5.90;4.40;;;;;;;;;;5095325;28;20494;-72
2022/04/05 14:23:59;;;;;;;6.57;4.60;;;;;;;;;;5095536;28;20535;-68
2022/04/05 14:26:26;;;;;;;5.97;5.47;;;;;;;;;;5096149;28;20531;-69
2022/04/05 14:28:56;;;;;;;9.53;6.87;;;;;;;;;;5095311;28;20454;-70
2022/04/05 14:31:23;;;;;;;6.00;5.40;;;;;;;;;;5095271;28;20483;-71
2022/04/05 14:33:50;;;;;;;7.40;6.70;;;;;;;;;;5095240;28;20470;-70
2022/04/05 14:36:17;;;;;;;7.07;6.37;;;;;;;;;;5095290;28;20967;-69
2022/04/05 14:38:45;;;;;;;7.67;6.83;;;;;;;;;;5095492;28;20436;-69
2022/04/05 14:41:14;;;;;;;9.73;7.27;;;;;;;;;;5095066;28;20475;-69
2022/04/05 14:43:41;;;;;;;8.00;7.20;;;;;;;;;;5094853;28;20439;-69
2022/04/05 14:46:09;;;;;;;9.20;8.17;;;;;;;;;;5094871;28;20468;-69
2022/04/05 14:48:36;;;;;;;7.40;6.70;;;;;;;;;;5095133;28;20424;-70
2022/04/05 14:51:03;;;;;;;9.80;7.90;;;;;;;;;;5094839;28;20539;-70